sensor_id;sensor_type;location;lat;lon;timestamp;pressure;altitude;pressure_sealevel;temperature;humidity
31225;BME280;17847;31.524;74.366;2023-05-29T00:01:49;98290.72;;;25.01;61.39
31225;BME280;17847;31.524;74.366;2023-05-29T00:04:19;98292.88;;;25.04;60.60
31225;BME280;17847;31.524;74.366;2023-05-29T00:06:51;98290.66;;;25.07;60.89
31225;BME280;17847;31.524;74.366;2023-05-29T00:09:20;98295.78;;;25.08;60.96
31225;BME280;17847;31.524;74.366;2023-05-29T00:11:49;98295.47;;;25.10;61.35
31225;BME280;17847;31.524;74.366;2023-05-29T00:14:21;98297.69;;;25.08;61.74
31225;BME280;17847;31.524;74.366;2023-05-29T00:16:52;98303.09;;;25.08;61.66
31225;BME280;17847;31.524;74.366;2023-05-29T00:19:21;98299.88;;;25.05;62.32
31225;BME280;17847;31.524;74.366;2023-05-29T00:21:52;98303.59;;;25.10;61.80
31225;BME280;17847;31.524;74.366;2023-05-29T00:24:22;98303.31;;;25.11;61.93
31225;BME280;17847;31.524;74.366;2023-05-29T00:26:51;98309.25;;;25.13;62.25
31225;BME280;17847;31.524;74.366;2023-05-29T00:29:20;98313.25;;;25.16;62.70
31225;BME280;17847;31.524;74.366;2023-05-29T00:31:51;98311.84;;;25.18;62.05
31225;BME280;17847;31.524;74.366;2023-05-29T00:34:22;98321.03;;;25.22;62.76
31225;BME280;17847;31.524;74.366;2023-05-29T00:36:54;98325.03;;;25.25;62.83
31225;BME280;17847;31.524;74.366;2023-05-29T00:39:26;98331.28;;;25.25;63.20
31225;BME280;17847;31.524;74.366;2023-05-29T00:41:56;98330.66;;;25.28;62.46
31225;BME280;17847;31.524;74.366;2023-05-29T00:44:26;98329.56;;;25.29;62.93
31225;BME280;17847;31.524;74.366;2023-05-29T00:46:55;98336.28;;;25.32;62.81
31225;BME280;17847;31.524;74.366;2023-05-29T00:49:25;98339.00;;;25.32;63.35
31225;BME280;17847;31.524;74.366;2023-05-29T00:51:56;98343.34;;;25.33;63.03
31225;BME280;17847;31.524;74.366;2023-05-29T00:54:29;98349.78;;;25.37;63.30
31225;BME280;17847;31.524;74.366;2023-05-29T00:57:04;98359.00;;;25.36;63.37
31225;BME280;17847;31.524;74.366;2023-05-29T00:59:34;98360.63;;;25.37;63.38
31225;BME280;17847;31.524;74.366;2023-05-29T01:02:04;98384.44;;;25.40;63.01
31225;BME280;17847;31.524;74.366;2023-05-29T01:04:34;98384.13;;;25.41;63.44
31225;BME280;17847;31.524;74.366;2023-05-29T01:07:04;98388.97;;;25.44;63.96
31225;BME280;17847;31.524;74.366;2023-05-29T01:09:36;98397.13;;;25.44;63.38
31225;BME280;17847;31.524;74.366;2023-05-29T01:15:41;98417.19;;;25.43;63.49
31225;BME280;17847;31.524;74.366;2023-05-29T01:27:02;98459.88;;;25.57;66.66
31225;BME280;17847;31.524;74.366;2023-05-29T01:29:34;98462.25;;;25.58;65.37
31225;BME280;17847;31.524;74.366;2023-05-29T01:32:06;98473.41;;;25.57;65.04
31225;BME280;17847;31.524;74.366;2023-05-29T01:34:37;98477.38;;;25.64;64.25
31225;BME280;17847;31.524;74.366;2023-05-29T01:37:07;98489.16;;;25.73;64.75
31225;BME280;17847;31.524;74.366;2023-05-29T01:39:36;98496.63;;;25.81;65.35
31225;BME280;17847;31.524;74.366;2023-05-29T01:42:06;98495.56;;;25.96;64.85
31225;BME280;17847;31.524;74.366;2023-05-29T01:44:37;98492.06;;;26.09;63.91
31225;BME280;17847;31.524;74.366;2023-05-29T01:47:07;98491.63;;;26.21;63.81
31225;BME280;17847;31.524;74.366;2023-05-29T01:49:37;98489.34;;;26.28;61.63
31225;BME280;17847;31.524;74.366;2023-05-29T01:52:08;98502.69;;;26.38;61.38
31225;BME280;17847;31.524;74.366;2023-05-29T01:54:38;98531.38;;;26.44;62.17
31225;BME280;17847;31.524;74.366;2023-05-29T01:57:09;98542.16;;;26.49;62.42
31225;BME280;17847;31.524;74.366;2023-05-29T01:59:39;98551.19;;;26.31;60.42
31225;BME280;17847;31.524;74.366;2023-05-29T02:02:10;98538.06;;;26.19;60.15
31225;BME280;17847;31.524;74.366;2023-05-29T02:04:41;98549.81;;;26.15;61.04
31225;BME280;17847;31.524;74.366;2023-05-29T02:07:11;98556.53;;;26.17;61.43
31225;BME280;17847;31.524;74.366;2023-05-29T02:09:41;98553.41;;;26.10;61.27
31225;BME280;17847;31.524;74.366;2023-05-29T02:12:10;98539.47;;;25.98;61.22
31225;BME280;17847;31.524;74.366;2023-05-29T02:14:39;98548.97;;;25.82;61.59
31225;BME280;17847;31.524;74.366;2023-05-29T02:17:10;98550.47;;;25.74;60.80
31225;BME280;17847;31.524;74.366;2023-05-29T02:19:39;98546.06;;;25.78;61.54
31225;BME280;17847;31.524;74.366;2023-05-29T02:22:08;98537.47;;;25.71;62.16
31225;BME280;17847;31.524;74.366;2023-05-29T02:24:38;98540.91;;;25.58;61.74
31225;BME280;17847;31.524;74.366;2023-05-29T02:27:07;98540.41;;;25.56;62.73
31225;BME280;17847;31.524;74.366;2023-05-29T02:29:37;98536.38;;;25.54;62.17
31225;BME280;17847;31.524;74.366;2023-05-29T02:32:07;98536.66;;;25.52;62.08
31225;BME280;17847;31.524;74.366;2023-05-29T02:34:36;98523.69;;;25.68;62.74
31225;BME280;17847;31.524;74.366;2023-05-29T02:37:05;98528.59;;;25.84;61.95
31225;BME280;17847;31.524;74.366;2023-05-29T02:39:35;98528.22;;;25.91;60.75
31225;BME280;17847;31.524;74.366;2023-05-29T02:42:06;98536.88;;;25.93;60.77
31225;BME280;17847;31.524;74.366;2023-05-29T02:44:35;98537.50;;;26.04;61.32
31225;BME280;17847;31.524;74.366;2023-05-29T02:47:04;98531.50;;;26.07;61.06
31225;BME280;17847;31.524;74.366;2023-05-29T02:49:35;98524.44;;;26.06;61.00
31225;BME280;17847;31.524;74.366;2023-05-29T02:52:04;98518.47;;;26.22;61.30
31225;BME280;17847;31.524;74.366;2023-05-29T02:54:34;98524.78;;;26.18;61.34
31225;BME280;17847;31.524;74.366;2023-05-29T02:57:04;98523.25;;;26.12;61.45
31225;BME280;17847;31.524;74.366;2023-05-29T02:59:33;98521.13;;;26.09;60.72
31225;BME280;17847;31.524;74.366;2023-05-29T03:02:03;98509.47;;;26.08;61.87
31225;BME280;17847;31.524;74.366;2023-05-29T03:04:32;98511.88;;;26.10;61.20
31225;BME280;17847;31.524;74.366;2023-05-29T03:07:02;98505.53;;;26.01;61.68
31225;BME280;17847;31.524;74.366;2023-05-29T03:09:31;98506.91;;;25.98;61.72
31225;BME280;17847;31.524;74.366;2023-05-29T03:12:01;98502.81;;;26.01;62.10
31225;BME280;17847;31.524;74.366;2023-05-29T03:14:30;98501.13;;;26.05;62.25
31225;BME280;17847;31.524;74.366;2023-05-29T03:17:09;98499.69;;;26.07;61.78
31225;BME280;17847;31.524;74.366;2023-05-29T03:19:39;98503.91;;;26.00;60.25
31225;BME280;17847;31.524;74.366;2023-05-29T03:22:09;98505.44;;;26.06;60.80
31225;BME280;17847;31.524;74.366;2023-05-29T03:24:39;98502.72;;;26.06;61.69
31225;BME280;17847;31.524;74.366;2023-05-29T03:27:09;98508.97;;;26.06;61.47
31225;BME280;17847;31.524;74.366;2023-05-29T03:29:39;98506.34;;;26.01;61.78
31225;BME280;17847;31.524;74.366;2023-05-29T03:32:08;98506.13;;;25.98;62.40
31225;BME280;17847;31.524;74.366;2023-05-29T03:34:38;98508.84;;;25.98;62.77
31225;BME280;17847;31.524;74.366;2023-05-29T03:37:08;98513.97;;;25.99;62.65
31225;BME280;17847;31.524;74.366;2023-05-29T03:39:39;98509.22;;;25.91;62.90
31225;BME280;17847;31.524;74.366;2023-05-29T03:42:09;98503.06;;;25.85;63.28
31225;BME280;17847;31.524;74.366;2023-05-29T03:44:39;98502.72;;;25.73;63.89
31225;BME280;17847;31.524;74.366;2023-05-29T03:47:10;98502.00;;;25.68;63.99
31225;BME280;17847;31.524;74.366;2023-05-29T03:49:40;98501.28;;;25.62;64.38
31225;BME280;17847;31.524;74.366;2023-05-29T03:52:09;98507.06;;;25.74;64.32
31225;BME280;17847;31.524;74.366;2023-05-29T03:54:39;98510.72;;;25.83;64.77
31225;BME280;17847;31.524;74.366;2023-05-29T03:57:09;98500.19;;;25.96;64.70
31225;BME280;17847;31.524;74.366;2023-05-29T03:59:38;98507.97;;;26.02;64.69
31225;BME280;17847;31.524;74.366;2023-05-29T04:02:08;98513.59;;;26.06;63.80
31225;BME280;17847;31.524;74.366;2023-05-29T04:04:41;98514.88;;;26.08;63.38
31225;BME280;17847;31.524;74.366;2023-05-29T04:07:11;98521.03;;;26.14;63.46
31225;BME280;17847;31.524;74.366;2023-05-29T04:09:42;98518.41;;;26.27;62.90
31225;BME280;17847;31.524;74.366;2023-05-29T04:12:11;98524.13;;;26.40;61.70
31225;BME280;17847;31.524;74.366;2023-05-29T04:14:42;98525.34;;;26.47;62.69
31225;BME280;17847;31.524;74.366;2023-05-29T04:17:12;98517.91;;;26.53;62.29
31225;BME280;17847;31.524;74.366;2023-05-29T04:19:43;98532.59;;;26.65;63.01
31225;BME280;17847;31.524;74.366;2023-05-29T04:22:12;98528.59;;;26.76;62.82
31225;BME280;17847;31.524;74.366;2023-05-29T04:24:41;98525.59;;;26.92;62.42
31225;BME280;17847;31.524;74.366;2023-05-29T04:27:11;98538.88;;;27.07;61.76
31225;BME280;17847;31.524;74.366;2023-05-29T04:29:42;98559.09;;;27.14;61.51
31225;BME280;17847;31.524;74.366;2023-05-29T04:32:12;98574.13;;;27.25;60.29
31225;BME280;17847;31.524;74.366;2023-05-29T04:34:42;98570.69;;;27.34;61.16
31225;BME280;17847;31.524;74.366;2023-05-29T04:37:15;98569.25;;;27.36;60.86
31225;BME280;17847;31.524;74.366;2023-05-29T04:39:45;98574.88;;;27.40;60.27
31225;BME280;17847;31.524;74.366;2023-05-29T04:42:21;98562.59;;;27.42;60.52
31225;BME280;17847;31.524;74.366;2023-05-29T04:44:52;98561.91;;;27.37;60.90
31225;BME280;17847;31.524;74.366;2023-05-29T04:47:22;98563.81;;;27.36;61.02
31225;BME280;17847;31.524;74.366;2023-05-29T04:49:53;98565.25;;;27.34;62.00
31225;BME280;17847;31.524;74.366;2023-05-29T04:52:23;98570.88;;;27.37;62.14
31225;BME280;17847;31.524;74.366;2023-05-29T04:54:56;98569.16;;;27.41;61.74
31225;BME280;17847;31.524;74.366;2023-05-29T04:57:26;98570.75;;;27.42;61.37
31225;BME280;17847;31.524;74.366;2023-05-29T04:59:55;98564.69;;;27.45;60.91
31225;BME280;17847;31.524;74.366;2023-05-29T05:02:26;98573.59;;;27.51;60.49
31225;BME280;17847;31.524;74.366;2023-05-29T05:04:55;98576.91;;;27.61;61.07
31225;BME280;17847;31.524;74.366;2023-05-29T05:07:26;98569.78;;;27.52;60.85
31225;BME280;17847;31.524;74.366;2023-05-29T05:09:55;98572.06;;;27.45;62.13
31225;BME280;17847;31.524;74.366;2023-05-29T05:12:27;98575.03;;;27.48;61.24
31225;BME280;17847;31.524;74.366;2023-05-29T05:14:57;98566.25;;;27.51;61.60
31225;BME280;17847;31.524;74.366;2023-05-29T05:17:27;98565.13;;;27.52;61.60
31225;BME280;17847;31.524;74.366;2023-05-29T05:19:56;98568.22;;;27.59;62.42
31225;BME280;17847;31.524;74.366;2023-05-29T05:22:26;98560.28;;;27.85;60.46
31225;BME280;17847;31.524;74.366;2023-05-29T05:24:56;98558.88;;;28.32;56.83
31225;BME280;17847;31.524;74.366;2023-05-29T05:27:26;98564.72;;;28.70;57.82
31225;BME280;17847;31.524;74.366;2023-05-29T05:29:56;98559.25;;;29.18;55.58
31225;BME280;17847;31.524;74.366;2023-05-29T05:32:26;98558.22;;;29.62;53.81
31225;BME280;17847;31.524;74.366;2023-05-29T05:35:03;98560.19;;;29.87;51.58
31225;BME280;17847;31.524;74.366;2023-05-29T05:37:32;98555.34;;;30.10;51.25
31225;BME280;17847;31.524;74.366;2023-05-29T05:40:04;98555.03;;;30.12;54.82
31225;BME280;17847;31.524;74.366;2023-05-29T05:42:43;98552.59;;;30.10;55.22
31225;BME280;17847;31.524;74.366;2023-05-29T05:45:13;98553.72;;;30.26;54.87
31225;BME280;17847;31.524;74.366;2023-05-29T05:47:43;98545.84;;;30.25;54.71
31225;BME280;17847;31.524;74.366;2023-05-29T05:50:13;98542.63;;;30.23;54.45
31225;BME280;17847;31.524;74.366;2023-05-29T05:52:44;98537.16;;;30.14;54.96
31225;BME280;17847;31.524;74.366;2023-05-29T05:55:14;98529.66;;;29.77;55.58
31225;BME280;17847;31.524;74.366;2023-05-29T05:57:43;98534.47;;;29.54;55.01
31225;BME280;17847;31.524;74.366;2023-05-29T06:00:14;98519.19;;;29.36;56.37
31225;BME280;17847;31.524;74.366;2023-05-29T06:02:44;98533.66;;;29.54;56.35
31225;BME280;17847;31.524;74.366;2023-05-29T06:05:27;98519.03;;;29.50;54.90
31225;BME280;17847;31.524;74.366;2023-05-29T06:07:57;98515.50;;;29.58;56.57
31225;BME280;17847;31.524;74.366;2023-05-29T06:10:27;98513.13;;;29.65;55.71
31225;BME280;17847;31.524;74.366;2023-05-29T06:12:57;98522.88;;;29.57;56.20
31225;BME280;17847;31.524;74.366;2023-05-29T06:15:39;98519.53;;;29.52;56.24
31225;BME280;17847;31.524;74.366;2023-05-29T06:18:08;98516.63;;;29.48;57.18
31225;BME280;17847;31.524;74.366;2023-05-29T06:20:38;98524.59;;;29.19;58.11
31225;BME280;17847;31.524;74.366;2023-05-29T06:23:08;98518.00;;;29.02;56.78
31225;BME280;17847;31.524;74.366;2023-05-29T06:25:38;98522.97;;;29.09;56.84
31225;BME280;17847;31.524;74.366;2023-05-29T06:28:07;98514.94;;;29.13;56.17
31225;BME280;17847;31.524;74.366;2023-05-29T06:30:36;98521.56;;;29.20;57.33
31225;BME280;17847;31.524;74.366;2023-05-29T06:33:08;98527.22;;;29.32;56.98
31225;BME280;17847;31.524;74.366;2023-05-29T06:35:39;98520.00;;;29.45;57.19
31225;BME280;17847;31.524;74.366;2023-05-29T06:38:09;98521.94;;;29.53;56.32
31225;BME280;17847;31.524;74.366;2023-05-29T06:40:39;98514.53;;;29.71;55.74
31225;BME280;17847;31.524;74.366;2023-05-29T06:43:09;98528.19;;;29.71;55.68
31225;BME280;17847;31.524;74.366;2023-05-29T06:45:45;98519.03;;;29.93;57.13
31225;BME280;17847;31.524;74.366;2023-05-29T06:48:17;98524.19;;;30.03;55.35
31225;BME280;17847;31.524;74.366;2023-05-29T06:50:48;98527.06;;;30.06;55.60
31225;BME280;17847;31.524;74.366;2023-05-29T06:53:49;98530.09;;;30.22;57.16
31225;BME280;17847;31.524;74.366;2023-05-29T06:56:19;98522.47;;;30.36;56.27
31225;BME280;17847;31.524;74.366;2023-05-29T06:58:50;98523.13;;;30.42;58.14
31225;BME280;17847;31.524;74.366;2023-05-29T07:01:57;98515.59;;;30.47;56.50
31225;BME280;17847;31.524;74.366;2023-05-29T07:04:28;98509.63;;;30.45;55.13
31225;BME280;17847;31.524;74.366;2023-05-29T07:06:57;98514.59;;;30.43;55.39
31225;BME280;17847;31.524;74.366;2023-05-29T07:09:27;98518.91;;;30.61;55.77
31225;BME280;17847;31.524;74.366;2023-05-29T07:11:57;98514.66;;;30.72;56.10
31225;BME280;17847;31.524;74.366;2023-05-29T07:14:26;98511.88;;;30.81;55.16
31225;BME280;17847;31.524;74.366;2023-05-29T07:16:57;98511.78;;;30.69;54.11
31225;BME280;17847;31.524;74.366;2023-05-29T07:19:27;98509.50;;;30.80;52.42
31225;BME280;17847;31.524;74.366;2023-05-29T07:21:58;98505.78;;;30.84;54.40
31225;BME280;17847;31.524;74.366;2023-05-29T07:24:28;98504.72;;;30.97;53.61
31225;BME280;17847;31.524;74.366;2023-05-29T07:26:57;98504.53;;;31.11;53.68
31225;BME280;17847;31.524;74.366;2023-05-29T07:29:26;98493.53;;;31.19;46.98
31225;BME280;17847;31.524;74.366;2023-05-29T07:31:56;98492.91;;;31.35;50.91
31225;BME280;17847;31.524;74.366;2023-05-29T07:34:25;98497.06;;;31.41;50.27
31225;BME280;17847;31.524;74.366;2023-05-29T07:37:05;98498.31;;;31.43;49.22
31225;BME280;17847;31.524;74.366;2023-05-29T07:39:36;98482.28;;;31.54;51.68
31225;BME280;17847;31.524;74.366;2023-05-29T07:42:23;98486.56;;;31.84;50.11
31225;BME280;17847;31.524;74.366;2023-05-29T07:44:52;98484.97;;;32.16;49.34
31225;BME280;17847;31.524;74.366;2023-05-29T07:47:24;98487.63;;;32.37;47.75
31225;BME280;17847;31.524;74.366;2023-05-29T07:49:53;98485.22;;;32.35;47.61
31225;BME280;17847;31.524;74.366;2023-05-29T07:52:25;98479.19;;;32.30;48.03
31225;BME280;17847;31.524;74.366;2023-05-29T07:54:55;98477.47;;;32.04;47.34
31225;BME280;17847;31.524;74.366;2023-05-29T07:57:25;98475.50;;;31.93;47.26
31225;BME280;17847;31.524;74.366;2023-05-29T07:59:57;98485.16;;;31.78;48.83
31225;BME280;17847;31.524;74.366;2023-05-29T08:02:27;98470.22;;;31.76;46.62
31225;BME280;17847;31.524;74.366;2023-05-29T08:05:35;98473.34;;;31.65;48.43
31225;BME280;17847;31.524;74.366;2023-05-29T08:08:13;98481.19;;;31.55;49.69
31225;BME280;17847;31.524;74.366;2023-05-29T08:10:42;98478.75;;;31.53;51.00
31225;BME280;17847;31.524;74.366;2023-05-29T08:13:12;98473.94;;;31.30;51.52
31225;BME280;17847;31.524;74.366;2023-05-29T08:15:43;98471.09;;;30.97;51.69
31225;BME280;17847;31.524;74.366;2023-05-29T08:18:13;98471.75;;;30.94;51.49
31225;BME280;17847;31.524;74.366;2023-05-29T08:20:42;98471.41;;;30.74;51.52
31225;BME280;17847;31.524;74.366;2023-05-29T08:23:14;98476.25;;;30.69;52.45
31225;BME280;17847;31.524;74.366;2023-05-29T08:25:43;98466.59;;;30.63;53.13
31225;BME280;17847;31.524;74.366;2023-05-29T08:28:13;98471.66;;;30.52;52.98
31225;BME280;17847;31.524;74.366;2023-05-29T08:30:43;98465.72;;;30.42;50.98
31225;BME280;17847;31.524;74.366;2023-05-29T08:33:12;98476.03;;;30.45;52.08
31225;BME280;17847;31.524;74.366;2023-05-29T08:35:42;98475.84;;;30.41;51.65
31225;BME280;17847;31.524;74.366;2023-05-29T08:38:11;98471.56;;;30.31;53.28
31225;BME280;17847;31.524;74.366;2023-05-29T08:40:40;98471.56;;;30.31;54.44
31225;BME280;17847;31.524;74.366;2023-05-29T08:43:33;98460.44;;;30.37;50.16
31225;BME280;17847;31.524;74.366;2023-05-29T08:46:03;98457.06;;;30.40;50.64
31225;BME280;17847;31.524;74.366;2023-05-29T08:48:32;98450.00;;;30.39;52.51
31225;BME280;17847;31.524;74.366;2023-05-29T08:51:06;98444.53;;;30.39;51.44
31225;BME280;17847;31.524;74.366;2023-05-29T08:53:37;98444.03;;;30.45;52.30
31225;BME280;17847;31.524;74.366;2023-05-29T08:56:07;98444.31;;;30.52;50.84
31225;BME280;17847;31.524;74.366;2023-05-29T08:58:46;98427.06;;;30.60;50.15
31225;BME280;17847;31.524;74.366;2023-05-29T09:01:17;98434.91;;;30.70;49.22
31225;BME280;17847;31.524;74.366;2023-05-29T09:03:47;98425.16;;;30.61;52.11
31225;BME280;17847;31.524;74.366;2023-05-29T09:06:16;98420.19;;;30.54;53.00
31225;BME280;17847;31.524;74.366;2023-05-29T09:08:47;98419.72;;;30.52;51.89
31225;BME280;17847;31.524;74.366;2023-05-29T09:11:16;98416.84;;;30.49;52.88
31225;BME280;17847;31.524;74.366;2023-05-29T09:13:47;98410.41;;;30.53;53.41
31225;BME280;17847;31.524;74.366;2023-05-29T09:16:16;98399.97;;;30.47;54.15
31225;BME280;17847;31.524;74.366;2023-05-29T09:18:46;98397.56;;;30.37;54.21
31225;BME280;17847;31.524;74.366;2023-05-29T09:21:28;98386.63;;;30.37;54.68
31225;BME280;17847;31.524;74.366;2023-05-29T09:24:04;98390.19;;;30.37;55.18
31225;BME280;17847;31.524;74.366;2023-05-29T09:26:38;98385.78;;;30.53;55.28
31225;BME280;17847;31.524;74.366;2023-05-29T09:29:09;98381.66;;;30.68;52.67
31225;BME280;17847;31.524;74.366;2023-05-29T09:31:46;98374.56;;;30.75;52.46
31225;BME280;17847;31.524;74.366;2023-05-29T09:34:16;98380.28;;;30.83;53.79
31225;BME280;17847;31.524;74.366;2023-05-29T09:36:45;98374.34;;;30.81;53.53
31225;BME280;17847;31.524;74.366;2023-05-29T09:39:14;98378.63;;;30.90;51.49
31225;BME280;17847;31.524;74.366;2023-05-29T09:41:45;98382.44;;;30.98;50.36
31225;BME280;17847;31.524;74.366;2023-05-29T09:44:17;98363.91;;;31.03;49.13
31225;BME280;17847;31.524;74.366;2023-05-29T09:46:48;98362.00;;;31.16;47.04
31225;BME280;17847;31.524;74.366;2023-05-29T09:49:22;98356.00;;;31.23;49.17
31225;BME280;17847;31.524;74.366;2023-05-29T09:51:55;98351.94;;;31.29;48.68
31225;BME280;17847;31.524;74.366;2023-05-29T09:54:26;98350.56;;;31.35;48.79
31225;BME280;17847;31.524;74.366;2023-05-29T09:56:58;98347.94;;;31.38;46.75
31225;BME280;17847;31.524;74.366;2023-05-29T09:59:31;98339.19;;;31.33;47.01
31225;BME280;17847;31.524;74.366;2023-05-29T10:02:03;98335.16;;;31.30;49.14
31225;BME280;17847;31.524;74.366;2023-05-29T10:04:36;98337.91;;;31.30;47.87
31225;BME280;17847;31.524;74.366;2023-05-29T10:07:30;98325.22;;;31.26;46.65
31225;BME280;17847;31.524;74.366;2023-05-29T10:10:05;98331.06;;;31.24;44.05
31225;BME280;17847;31.524;74.366;2023-05-29T10:12:38;98316.44;;;31.20;47.19
31225;BME280;17847;31.524;74.366;2023-05-29T10:15:15;98316.28;;;31.16;43.54
31225;BME280;17847;31.524;74.366;2023-05-29T10:18:37;98306.75;;;31.23;44.20
31225;BME280;17847;31.524;74.366;2023-05-29T10:20:43;98304.94;;;31.27;46.24
31225;BME280;17847;31.524;74.366;2023-05-29T10:23:14;98318.03;;;31.21;44.75
31225;BME280;17847;31.524;74.366;2023-05-29T10:25:44;98317.50;;;31.28;44.85
31225;BME280;17847;31.524;74.366;2023-05-29T10:28:21;98317.00;;;31.26;43.75
31225;BME280;17847;31.524;74.366;2023-05-29T10:31:16;98317.22;;;31.20;41.51
31225;BME280;17847;31.524;74.366;2023-05-29T10:36:38;98304.41;;;31.33;41.33
31225;BME280;17847;31.524;74.366;2023-05-29T10:39:10;98306.13;;;31.38;43.57
31225;BME280;17847;31.524;74.366;2023-05-29T10:41:41;98311.81;;;31.33;43.35
31225;BME280;17847;31.524;74.366;2023-05-29T10:44:38;98312.75;;;31.49;39.88
31225;BME280;17847;31.524;74.366;2023-05-29T10:47:08;98324.72;;;31.44;39.82
31225;BME280;17847;31.524;74.366;2023-05-29T10:49:49;98316.75;;;31.51;39.48
31225;BME280;17847;31.524;74.366;2023-05-29T10:52:27;98317.19;;;31.41;41.48
31225;BME280;17847;31.524;74.366;2023-05-29T10:54:59;98314.09;;;31.43;40.12
31225;BME280;17847;31.524;74.366;2023-05-29T10:57:33;98309.88;;;31.33;44.10
31225;BME280;17847;31.524;74.366;2023-05-29T11:00:06;98317.53;;;31.40;40.95
31225;BME280;17847;31.524;74.366;2023-05-29T11:02:41;98312.63;;;31.45;41.30
31225;BME280;17847;31.524;74.366;2023-05-29T11:05:23;98308.53;;;31.51;39.92
31225;BME280;17847;31.524;74.366;2023-05-29T11:07:58;98308.19;;;31.53;41.32
31225;BME280;17847;31.524;74.366;2023-05-29T11:13:33;98311.94;;;31.36;42.11
31225;BME280;17847;31.524;74.366;2023-05-29T11:18:53;98312.44;;;30.97;44.88
31225;BME280;17847;31.524;74.366;2023-05-29T11:21:38;98312.91;;;30.78;45.83
31225;BME280;17847;31.524;74.366;2023-05-29T11:24:24;98319.56;;;30.68;45.80
31225;BME280;17847;31.524;74.366;2023-05-29T11:26:56;98314.31;;;30.63;45.58
31225;BME280;17847;31.524;74.366;2023-05-29T11:29:29;98318.13;;;30.42;45.51
31225;BME280;17847;31.524;74.366;2023-05-29T11:32:01;98319.72;;;30.51;44.03
31225;BME280;17847;31.524;74.366;2023-05-29T11:34:35;98326.91;;;30.26;45.97
31225;BME280;17847;31.524;74.366;2023-05-29T11:37:08;98333.41;;;30.13;46.00
31225;BME280;17847;31.524;74.366;2023-05-29T11:39:37;98333.34;;;29.93;46.33
31225;BME280;17847;31.524;74.366;2023-05-29T11:42:08;98330.00;;;29.78;48.24
31225;BME280;17847;31.524;74.366;2023-05-29T11:44:37;98331.63;;;29.71;48.42
31225;BME280;17847;31.524;74.366;2023-05-29T11:47:07;98326.81;;;29.68;49.26
31225;BME280;17847;31.524;74.366;2023-05-29T11:49:37;98330.69;;;29.67;48.84
31225;BME280;17847;31.524;74.366;2023-05-29T11:52:14;98326.16;;;29.71;46.82
31225;BME280;17847;31.524;74.366;2023-05-29T11:54:45;98322.44;;;29.75;48.44
31225;BME280;17847;31.524;74.366;2023-05-29T11:57:21;98329.97;;;29.87;46.96
31225;BME280;17847;31.524;74.366;2023-05-29T11:59:50;98329.66;;;29.88;47.87
31225;BME280;17847;31.524;74.366;2023-05-29T12:02:31;98328.69;;;29.93;47.97
31225;BME280;17847;31.524;74.366;2023-05-29T12:05:02;98335.53;;;30.08;46.71
31225;BME280;17847;31.524;74.366;2023-05-29T12:07:34;98334.84;;;30.11;46.21
31225;BME280;17847;31.524;74.366;2023-05-29T12:10:13;98328.59;;;30.10;46.77
31225;BME280;17847;31.524;74.366;2023-05-29T12:13:03;98327.00;;;30.09;47.36
31225;BME280;17847;31.524;74.366;2023-05-29T12:15:32;98320.88;;;30.12;48.67
31225;BME280;17847;31.524;74.366;2023-05-29T12:18:02;98324.69;;;30.20;47.95
31225;BME280;17847;31.524;74.366;2023-05-29T12:20:31;98339.06;;;30.08;49.22
31225;BME280;17847;31.524;74.366;2023-05-29T12:23:02;98365.13;;;29.97;48.27
31225;BME280;17847;31.524;74.366;2023-05-29T12:25:34;98377.09;;;29.67;50.80
31225;BME280;17847;31.524;74.366;2023-05-29T12:28:06;98382.28;;;29.34;51.35
31225;BME280;17847;31.524;74.366;2023-05-29T12:30:37;98380.81;;;29.11;52.25
31225;BME280;17847;31.524;74.366;2023-05-29T12:33:07;98373.13;;;28.95;51.91
31225;BME280;17847;31.524;74.366;2023-05-29T12:35:37;98377.75;;;28.86;53.36
31225;BME280;17847;31.524;74.366;2023-05-29T12:38:07;98388.28;;;28.62;52.90
31225;BME280;17847;31.524;74.366;2023-05-29T12:40:40;98387.78;;;28.60;54.27
31225;BME280;17847;31.524;74.366;2023-05-29T12:43:09;98375.91;;;28.47;54.27
31225;BME280;17847;31.524;74.366;2023-05-29T12:45:38;98358.56;;;28.35;53.33
31225;BME280;17847;31.524;74.366;2023-05-29T12:48:08;98349.72;;;28.21;54.83
31225;BME280;17847;31.524;74.366;2023-05-29T12:50:40;98360.69;;;28.07;53.81
31225;BME280;17847;31.524;74.366;2023-05-29T12:53:13;98360.34;;;28.00;54.71
31225;BME280;17847;31.524;74.366;2023-05-29T12:55:44;98364.00;;;27.95;55.00
31225;BME280;17847;31.524;74.366;2023-05-29T12:58:15;98355.81;;;27.87;55.24
31225;BME280;17847;31.524;74.366;2023-05-29T13:00:45;98344.13;;;27.86;55.00
31225;BME280;17847;31.524;74.366;2023-05-29T13:03:14;98347.28;;;27.80;53.69
31225;BME280;17847;31.524;74.366;2023-05-29T13:05:44;98353.84;;;27.79;54.14
31225;BME280;17847;31.524;74.366;2023-05-29T13:08:14;98357.50;;;27.74;53.63
31225;BME280;17847;31.524;74.366;2023-05-29T13:10:44;98356.97;;;27.63;52.58
31225;BME280;17847;31.524;74.366;2023-05-29T13:13:14;98358.88;;;27.63;52.84
31225;BME280;17847;31.524;74.366;2023-05-29T13:15:44;98357.91;;;27.59;53.93
31225;BME280;17847;31.524;74.366;2023-05-29T13:18:14;98362.53;;;27.58;54.74
31225;BME280;17847;31.524;74.366;2023-05-29T13:20:43;98360.38;;;27.47;53.38
31225;BME280;17847;31.524;74.366;2023-05-29T13:23:13;98372.34;;;27.46;53.53
31225;BME280;17847;31.524;74.366;2023-05-29T13:25:42;98372.19;;;27.42;54.30
31225;BME280;17847;31.524;74.366;2023-05-29T13:28:12;98367.97;;;27.36;55.30
31225;BME280;17847;31.524;74.366;2023-05-29T13:30:41;98373.53;;;27.31;54.79
31225;BME280;17847;31.524;74.366;2023-05-29T13:33:11;98367.09;;;27.27;54.32
31225;BME280;17847;31.524;74.366;2023-05-29T13:35:41;98379.13;;;27.26;55.31